createdAt,value
2019-05-12T00:00:10.233Z,991.84
2019-05-12T00:01:10.264Z,991.85
2019-05-12T00:02:10.233Z,991.89
2019-05-12T00:03:10.209Z,991.87
2019-05-12T00:04:10.186Z,991.90
2019-05-12T00:05:10.189Z,991.91
2019-05-12T00:06:10.173Z,991.86
2019-05-12T00:07:10.228Z,991.89
2019-05-12T00:08:10.216Z,991.93
2019-05-12T00:09:10.134Z,991.94
2019-05-12T00:10:10.125Z,991.92
2019-05-12T00:11:10.126Z,991.93
2019-05-12T00:12:10.107Z,991.96
2019-05-12T00:13:10.106Z,991.95
2019-05-12T00:14:10.076Z,991.93
2019-05-12T00:15:10.069Z,992.02
2019-05-12T00:16:10.053Z,992.05
2019-05-12T00:17:10.042Z,992.02
2019-05-12T00:18:10.045Z,992.05
2019-05-12T00:19:10.036Z,992.06
2019-05-12T00:20:10.014Z,992.08
2019-05-12T00:21:10.007Z,992.07
2019-05-12T00:22:09.989Z,992.17
2019-05-12T00:23:24.024Z,992.14
2019-05-12T00:24:10.977Z,992.18
2019-05-12T00:25:23.403Z,992.11
2019-05-12T00:26:09.948Z,992.25
2019-05-12T00:27:09.937Z,992.16
2019-05-12T00:28:09.935Z,992.21
2019-05-12T00:29:09.978Z,992.19
2019-05-12T00:30:10.866Z,992.24
2019-05-12T00:31:10.381Z,992.26
2019-05-12T00:32:09.882Z,992.29
2019-05-12T00:33:09.876Z,992.28
2019-05-12T00:34:09.859Z,992.37
2019-05-12T00:35:09.883Z,992.39
2019-05-12T00:36:09.836Z,992.37
2019-05-12T00:37:09.836Z,992.40
2019-05-12T00:38:09.810Z,992.47
2019-05-12T00:39:09.802Z,992.42
2019-05-12T00:40:09.786Z,992.53
2019-05-12T00:41:09.869Z,992.58
2019-05-12T00:42:09.766Z,992.51
2019-05-12T00:43:09.760Z,992.47
2019-05-12T00:44:09.747Z,992.51
2019-05-12T00:45:09.735Z,992.45
2019-05-12T00:46:09.724Z,992.49
2019-05-12T00:47:09.756Z,992.50
2019-05-12T00:48:09.849Z,992.51
2019-05-12T00:49:09.716Z,992.53
2019-05-12T00:50:09.677Z,992.49
2019-05-12T00:51:09.670Z,992.58
2019-05-12T00:52:09.677Z,992.54
2019-05-12T00:53:09.884Z,992.54
2019-05-12T00:54:09.666Z,992.55
2019-05-12T00:55:09.621Z,992.52
2019-05-12T00:56:22.577Z,992.50
2019-05-12T00:57:09.599Z,992.55
2019-05-12T00:58:09.622Z,992.59
2019-05-12T00:59:09.590Z,992.54
2019-05-12T01:00:09.577Z,992.62
2019-05-12T01:01:09.567Z,992.66
2019-05-12T01:02:10.390Z,992.72
2019-05-12T01:03:09.535Z,992.76
2019-05-12T01:04:09.545Z,992.80
2019-05-12T01:05:09.512Z,992.77
2019-05-12T01:06:09.506Z,992.83
2019-05-12T01:07:09.493Z,992.77
2019-05-12T01:08:09.835Z,992.83
2019-05-12T01:09:09.469Z,992.94
2019-05-12T01:10:09.466Z,992.92
2019-05-12T01:11:09.444Z,993.04
2019-05-12T01:12:09.436Z,993.05
2019-05-12T01:13:09.441Z,993.02
2019-05-12T01:14:09.485Z,993.08
2019-05-12T01:15:09.424Z,993.07
2019-05-12T01:16:09.385Z,993.10
2019-05-12T01:17:09.380Z,993.16
2019-05-12T01:18:09.841Z,993.19
2019-05-12T01:19:09.363Z,993.21
2019-05-12T01:20:09.344Z,993.23
2019-05-12T01:21:09.333Z,993.27
2019-05-12T01:22:09.323Z,993.32
2019-05-12T01:23:09.318Z,993.23
2019-05-12T01:24:09.296Z,993.44
2019-05-12T01:25:09.287Z,993.40
2019-05-12T01:26:09.275Z,993.40
2019-05-12T01:27:22.290Z,993.38
2019-05-12T01:28:09.296Z,993.47
2019-05-12T01:29:09.237Z,993.51
2019-05-12T01:30:09.239Z,993.49
2019-05-12T01:31:09.242Z,993.56
2019-05-12T01:32:09.215Z,993.62
2019-05-12T01:33:09.286Z,993.55
2019-05-12T01:34:09.195Z,993.70
2019-05-12T01:35:09.177Z,993.67
2019-05-12T01:36:09.239Z,993.68
2019-05-12T01:37:09.214Z,993.78
2019-05-12T01:38:09.915Z,993.79
2019-05-12T01:39:09.170Z,993.78
2019-05-12T01:40:09.285Z,993.84
2019-05-12T01:41:09.112Z,993.80
2019-05-12T01:42:09.185Z,993.86
2019-05-12T01:43:09.238Z,993.90
2019-05-12T01:44:09.095Z,993.92
2019-05-12T01:45:09.963Z,993.94
2019-05-12T01:46:09.051Z,993.93
2019-05-12T01:47:09.041Z,993.99
2019-05-12T01:48:09.497Z,993.91
2019-05-12T01:49:09.021Z,994.01
2019-05-12T01:50:09.365Z,994.05
2019-05-12T01:51:09.010Z,994.17
2019-05-12T01:52:08.978Z,994.11
2019-05-12T01:53:09.038Z,994.14
2019-05-12T01:54:14.685Z,994.16
2019-05-12T01:55:09.937Z,994.20
2019-05-12T01:56:08.933Z,994.24
2019-05-12T01:57:08.956Z,994.25
2019-05-12T01:58:21.844Z,994.28
2019-05-12T01:59:08.895Z,994.33
2019-05-12T02:00:08.923Z,994.27
2019-05-12T02:01:08.877Z,994.31
2019-05-12T02:02:08.863Z,994.36
2019-05-12T02:03:09.485Z,994.36
2019-05-12T02:04:08.839Z,994.40
2019-05-12T02:05:08.983Z,994.49
2019-05-12T02:06:08.834Z,994.47
2019-05-12T02:07:08.811Z,994.45
2019-05-12T02:08:09.728Z,994.48
2019-05-12T02:09:08.790Z,994.54
2019-05-12T02:10:09.442Z,994.61
2019-05-12T02:11:08.771Z,994.62
2019-05-12T02:12:08.758Z,994.61
2019-05-12T02:13:08.751Z,994.60
2019-05-12T02:14:09.401Z,994.59
2019-05-12T02:15:08.722Z,994.71
2019-05-12T02:16:08.716Z,994.61
2019-05-12T02:17:08.859Z,994.71
2019-05-12T02:18:09.273Z,994.70
2019-05-12T02:19:09.211Z,994.77
2019-05-12T02:20:08.688Z,994.76
2019-05-12T02:21:08.653Z,994.81
2019-05-12T02:22:08.730Z,994.83
2019-05-12T02:23:09.212Z,994.83
2019-05-12T02:24:23.312Z,994.80
2019-05-12T02:25:09.644Z,994.86
2019-05-12T02:26:08.597Z,994.84
2019-05-12T02:27:08.590Z,994.90
2019-05-12T02:28:09.467Z,994.97
2019-05-12T02:29:18.910Z,994.94
2019-05-12T02:30:09.832Z,995.00
2019-05-12T02:31:09.447Z,994.99
2019-05-12T02:32:08.536Z,995.06
2019-05-12T02:33:08.526Z,995.13
2019-05-12T02:34:08.576Z,995.08
2019-05-12T02:35:08.509Z,995.15
2019-05-12T02:36:08.523Z,995.17
2019-05-12T02:37:08.477Z,995.24
2019-05-12T02:38:08.507Z,995.18
2019-05-12T02:39:08.481Z,995.31
2019-05-12T02:40:08.452Z,995.33
2019-05-12T02:41:08.432Z,995.39
2019-05-12T02:42:08.446Z,995.40
2019-05-12T02:43:08.440Z,995.35
2019-05-12T02:44:08.406Z,995.43
2019-05-12T02:45:08.386Z,995.37
2019-05-12T02:46:08.380Z,995.41
2019-05-12T02:47:08.436Z,995.49
2019-05-12T02:48:08.359Z,995.50
2019-05-12T02:49:08.341Z,995.55
2019-05-12T02:50:08.331Z,995.52
2019-05-12T02:51:08.333Z,995.63
2019-05-12T02:52:08.318Z,995.64
2019-05-12T02:53:08.368Z,995.62
2019-05-12T02:54:08.290Z,995.66
2019-05-12T02:55:08.287Z,995.71
2019-05-12T02:56:08.265Z,995.79
2019-05-12T02:57:08.255Z,995.83
2019-05-12T02:58:08.278Z,995.84
2019-05-12T02:59:08.269Z,995.86
2019-05-12T03:00:24.020Z,995.87
2019-05-12T03:01:08.214Z,995.99
2019-05-12T03:02:08.198Z,996.05
2019-05-12T03:03:08.300Z,996.01
2019-05-12T03:04:08.194Z,996.04
2019-05-12T03:05:08.170Z,996.08
2019-05-12T03:06:08.206Z,996.12
2019-05-12T03:07:09.005Z,996.18
2019-05-12T03:08:08.148Z,996.15
2019-05-12T03:09:08.131Z,996.16
2019-05-12T03:10:08.124Z,996.25
2019-05-12T03:11:08.110Z,996.34
2019-05-12T03:12:08.102Z,996.36
2019-05-12T03:13:08.082Z,996.38
2019-05-12T03:14:08.113Z,996.45
2019-05-12T03:15:08.078Z,996.46
2019-05-12T03:16:08.049Z,996.52
2019-05-12T03:17:08.034Z,996.54
2019-05-12T03:18:08.024Z,996.62
2019-05-12T03:19:08.025Z,996.56
2019-05-12T03:20:08.025Z,996.68
2019-05-12T03:21:08.001Z,996.69
2019-05-12T03:22:07.982Z,996.62
2019-05-12T03:23:07.971Z,996.69
2019-05-12T03:24:07.952Z,996.79
2019-05-12T03:25:19.929Z,996.81
2019-05-12T03:26:08.945Z,996.80
2019-05-12T03:27:07.934Z,996.83
2019-05-12T03:28:09.389Z,996.95
2019-05-12T03:29:07.900Z,997.01
2019-05-12T03:30:11.678Z,997.03
2019-05-12T03:31:29.872Z,997.01
2019-05-12T03:32:09.109Z,997.14
2019-05-12T03:33:10.534Z,997.10
2019-05-12T03:34:10.846Z,997.15
2019-05-12T03:35:09.069Z,997.18
2019-05-12T03:36:09.855Z,997.20
2019-05-12T03:37:08.518Z,997.20
2019-05-12T03:38:07.819Z,997.26
2019-05-12T03:39:07.788Z,997.23
2019-05-12T03:40:07.786Z,997.27
2019-05-12T03:41:07.762Z,997.36
2019-05-12T03:42:07.749Z,997.38
2019-05-12T03:43:07.756Z,997.46
2019-05-12T03:44:07.739Z,997.47
2019-05-12T03:45:07.723Z,997.51
2019-05-12T03:46:07.707Z,997.50
2019-05-12T03:47:07.695Z,997.47
2019-05-12T03:48:07.705Z,997.53
2019-05-12T03:49:07.678Z,997.58
2019-05-12T03:50:07.662Z,997.55
2019-05-12T03:51:07.711Z,997.56
2019-05-12T03:52:08.522Z,997.60
2019-05-12T03:53:10.833Z,997.69
2019-05-12T03:54:07.623Z,997.76
2019-05-12T03:55:25.979Z,997.81
2019-05-12T03:56:08.594Z,997.73
2019-05-12T03:57:07.581Z,997.88
2019-05-12T03:58:07.566Z,997.90
2019-05-12T03:59:07.603Z,997.92
2019-05-12T04:00:07.654Z,997.91
2019-05-12T04:01:07.560Z,997.98
2019-05-12T04:02:18.580Z,997.96
2019-05-12T04:03:07.512Z,997.99
2019-05-12T04:04:07.520Z,998.10
2019-05-12T04:05:07.516Z,998.03
2019-05-12T04:06:07.479Z,998.06
2019-05-12T04:07:07.469Z,998.05
2019-05-12T04:08:07.476Z,998.09
2019-05-12T04:09:07.479Z,998.11
2019-05-12T04:10:07.442Z,998.19
2019-05-12T04:11:07.425Z,998.20
2019-05-12T04:12:07.416Z,998.20
2019-05-12T04:13:07.404Z,998.24
2019-05-12T04:14:07.393Z,998.24
2019-05-12T04:15:07.429Z,998.27
2019-05-12T04:16:07.372Z,998.35
2019-05-12T04:17:07.357Z,998.40
2019-05-12T04:18:07.351Z,998.33
2019-05-12T04:19:07.333Z,998.34
2019-05-12T04:20:07.327Z,998.44
2019-05-12T04:21:07.348Z,998.46
2019-05-12T04:22:07.296Z,998.50
2019-05-12T04:23:07.346Z,998.58
2019-05-12T04:24:07.275Z,998.61
2019-05-12T04:25:07.256Z,998.61
2019-05-12T04:26:12.286Z,998.57
2019-05-12T04:27:08.248Z,998.66
2019-05-12T04:28:07.230Z,998.73
2019-05-12T04:29:07.237Z,998.75
2019-05-12T04:30:07.205Z,998.80
2019-05-12T04:31:07.193Z,998.83
2019-05-12T04:32:07.228Z,998.85
2019-05-12T04:33:19.605Z,998.84
2019-05-12T04:34:07.164Z,998.90
2019-05-12T04:35:07.146Z,998.94
2019-05-12T04:36:07.201Z,998.97
2019-05-12T04:37:07.148Z,999.01
2019-05-12T04:38:07.128Z,999.05
2019-05-12T04:39:07.114Z,999.07
2019-05-12T04:40:07.089Z,999.11
2019-05-12T04:41:07.079Z,999.15
2019-05-12T04:42:07.079Z,999.15
2019-05-12T04:43:07.093Z,999.21
2019-05-12T04:44:07.057Z,999.17
2019-05-12T04:45:07.046Z,999.21
2019-05-12T04:46:07.020Z,999.29
2019-05-12T04:47:07.019Z,999.27
2019-05-12T04:48:06.998Z,999.40
2019-05-12T04:49:07.033Z,999.30
2019-05-12T04:50:06.973Z,999.37
2019-05-12T04:51:06.967Z,999.39
2019-05-12T04:52:06.952Z,999.39
2019-05-12T04:53:07.100Z,999.48
2019-05-12T04:54:06.930Z,999.50
2019-05-12T04:55:06.969Z,999.53
2019-05-12T04:56:15.506Z,999.57
2019-05-12T04:57:07.901Z,999.60
2019-05-12T04:58:06.973Z,999.60
2019-05-12T04:59:06.930Z,999.69
2019-05-12T05:00:06.904Z,999.69
2019-05-12T05:01:06.910Z,999.72
2019-05-12T05:02:06.843Z,999.71
2019-05-12T05:03:06.830Z,999.86
2019-05-12T05:04:17.178Z,999.74
2019-05-12T05:05:06.834Z,999.80
2019-05-12T05:06:06.801Z,999.89
2019-05-12T05:07:06.823Z,999.93
2019-05-12T05:08:06.771Z,1000.01
2019-05-12T05:09:06.766Z,999.91
2019-05-12T05:10:06.757Z,1000.05
2019-05-12T05:11:06.739Z,999.94
2019-05-12T05:12:06.724Z,999.96
2019-05-12T05:13:07.161Z,1000.08
2019-05-12T05:14:06.699Z,1000.09
2019-05-12T05:15:06.704Z,1000.09
2019-05-12T05:16:06.689Z,1000.14
2019-05-12T05:17:06.685Z,1000.19
2019-05-12T05:18:07.068Z,1000.21
2019-05-12T05:19:06.656Z,1000.27
2019-05-12T05:20:06.643Z,1000.22
2019-05-12T05:21:06.625Z,1000.24
2019-05-12T05:22:06.616Z,1000.32
2019-05-12T05:23:06.599Z,1000.31
2019-05-12T05:24:06.604Z,1000.35
2019-05-12T05:25:06.581Z,1000.36
2019-05-12T05:26:19.847Z,1000.38
2019-05-12T05:27:07.551Z,1000.38
2019-05-12T05:28:06.544Z,1000.43
2019-05-12T05:29:06.564Z,1000.46
2019-05-12T05:30:06.542Z,1000.43
2019-05-12T05:31:06.514Z,1000.54
2019-05-12T05:32:06.502Z,1000.58
2019-05-12T05:33:06.489Z,1000.58
2019-05-12T05:34:06.476Z,1000.69
2019-05-12T05:35:19.155Z,1000.67
2019-05-12T05:36:15.215Z,1000.70
2019-05-12T05:37:07.443Z,1000.78
2019-05-12T05:38:10.872Z,1000.82
2019-05-12T05:39:07.430Z,1000.77
2019-05-12T05:40:06.431Z,1000.80
2019-05-12T05:41:10.470Z,1000.89
2019-05-12T05:42:06.389Z,1000.90
2019-05-12T05:43:18.187Z,1000.85
2019-05-12T05:44:07.367Z,1000.87
2019-05-12T05:45:10.527Z,1000.90
2019-05-12T05:46:08.114Z,1000.93
2019-05-12T05:47:06.328Z,1000.96
2019-05-12T05:48:10.002Z,1001.00
2019-05-12T05:49:06.315Z,1001.02
2019-05-12T05:50:06.300Z,1001.04
2019-05-12T05:51:09.105Z,1001.12
2019-05-12T05:52:06.277Z,1001.13
2019-05-12T05:53:09.295Z,1001.21
2019-05-12T05:54:07.249Z,1001.18
2019-05-12T05:55:14.574Z,1001.22
2019-05-12T05:56:07.258Z,1001.20
2019-05-12T05:57:06.373Z,1001.25
2019-05-12T05:58:10.272Z,1001.31
2019-05-12T05:59:06.201Z,1001.34
2019-05-12T06:00:15.978Z,1001.26
2019-05-12T06:01:08.331Z,1001.38
2019-05-12T06:02:06.185Z,1001.41
2019-05-12T06:03:06.280Z,1001.42
2019-05-12T06:04:08.667Z,1001.49
2019-05-12T06:05:06.129Z,1001.45
2019-05-12T06:06:10.855Z,1001.47
2019-05-12T06:10:40.456Z,1001.59
2019-05-12T06:11:39.021Z,1001.66
2019-05-12T06:12:40.427Z,1001.66
2019-05-12T06:13:40.331Z,1001.60
2019-05-12T06:14:40.833Z,1001.63
2019-05-12T06:15:40.904Z,1001.75
2019-05-12T06:16:38.942Z,1001.81
2019-05-12T06:17:38.919Z,1001.82
2019-05-12T06:18:38.919Z,1001.90
2019-05-12T06:19:38.948Z,1001.89
2019-05-12T06:20:38.924Z,1001.89
2019-05-12T06:21:38.879Z,1001.93
2019-05-12T06:22:38.868Z,1001.99
2019-05-12T06:23:39.285Z,1001.98
2019-05-12T06:24:38.883Z,1002.04
2019-05-12T06:25:47.372Z,1002.00
2019-05-12T06:26:52.882Z,1001.97
2019-05-12T06:27:39.807Z,1002.06
2019-05-12T06:28:41.135Z,1002.02
2019-05-12T06:29:38.793Z,1002.13
2019-05-12T06:30:44.458Z,1002.23
2019-05-12T06:31:39.767Z,1002.20
2019-05-12T06:32:41.163Z,1002.20
2019-05-12T06:33:39.740Z,1002.21
2019-05-12T06:34:38.727Z,1002.29
2019-05-12T06:35:42.250Z,1002.32
2019-05-12T06:36:39.710Z,1002.30
2019-05-12T06:37:38.708Z,1002.43
2019-05-12T06:38:40.488Z,1002.37
2019-05-12T06:39:38.669Z,1002.47
2019-05-12T06:40:45.747Z,1002.40
2019-05-12T06:41:38.652Z,1002.46
2019-05-12T06:42:38.644Z,1002.60
2019-05-12T06:43:42.387Z,1002.53
2019-05-12T06:44:39.617Z,1002.58
2019-05-12T06:45:42.465Z,1002.63
2019-05-12T06:46:39.639Z,1002.66
2019-05-12T06:47:39.315Z,1002.61
2019-05-12T06:48:42.467Z,1002.63
2019-05-12T06:49:39.584Z,1002.65
2019-05-12T06:50:39.278Z,1002.65
2019-05-12T06:51:38.572Z,1002.76
2019-05-12T06:52:43.253Z,1002.77
2019-05-12T06:53:39.515Z,1002.84
2019-05-12T06:54:44.609Z,1002.84
2019-05-12T06:55:40.180Z,1002.90
2019-05-12T06:56:38.542Z,1002.88
2019-05-12T06:57:40.034Z,1002.94
2019-05-12T06:58:39.546Z,1002.93
2019-05-12T06:59:41.938Z,1002.98
2019-05-12T07:00:39.434Z,1003.04
2019-05-12T07:01:38.428Z,1002.95
2019-05-12T07:02:49.031Z,1003.04
2019-05-12T07:03:39.413Z,1003.09
2019-05-12T07:04:41.252Z,1003.08
2019-05-12T07:05:42.481Z,1003.09
2019-05-12T07:06:39.370Z,1003.15
2019-05-12T07:07:42.005Z,1003.10
2019-05-12T07:08:39.353Z,1003.18
2019-05-12T07:09:50.118Z,1003.19
2019-05-12T07:10:43.634Z,1003.18
2019-05-12T07:12:58.917Z,1003.20
2019-05-12T07:14:02.210Z,1003.31
2019-05-12T07:14:57.115Z,1003.31
2019-05-12T07:15:54.298Z,1003.40
2019-05-12T07:16:55.331Z,1003.43
2019-05-12T07:17:55.721Z,1003.37
2019-05-12T07:18:54.047Z,1003.45
2019-05-12T07:19:54.654Z,1003.48
2019-05-12T07:20:53.741Z,1003.52
2019-05-12T07:21:58.212Z,1003.55
2019-05-12T07:22:54.862Z,1003.54
2019-05-12T07:23:53.462Z,1003.60
2019-05-12T07:24:52.806Z,1003.62
2019-05-12T07:25:51.726Z,1003.61
2019-05-12T07:26:54.759Z,1003.51
2019-05-12T07:27:58.708Z,1003.52
2019-05-12T07:28:54.069Z,1003.68
2019-05-12T07:29:54.094Z,1003.62
2019-05-12T07:30:51.709Z,1003.65
2019-05-12T07:31:53.689Z,1003.69
2019-05-12T07:32:59.351Z,1003.73
2019-05-12T07:33:54.212Z,1003.72
2019-05-12T07:34:51.627Z,1003.79
2019-05-12T07:35:53.433Z,1003.79
2019-05-12T07:36:53.824Z,1003.83
2019-05-12T07:37:53.451Z,1003.87
2019-05-12T07:38:55.807Z,1003.83
2019-05-12T07:39:53.837Z,1003.90
2019-05-12T07:40:53.558Z,1003.97
2019-05-12T07:41:52.650Z,1003.97
2019-05-12T07:42:58.830Z,1004.06
2019-05-12T07:43:56.761Z,1004.14
2019-05-12T07:44:54.378Z,1004.18
2019-05-12T07:45:56.652Z,1004.12
2019-05-12T07:46:54.071Z,1004.22
2019-05-12T07:47:51.483Z,1004.17
2019-05-12T07:48:51.492Z,1004.17
2019-05-12T07:49:53.625Z,1004.19
2019-05-12T07:50:57.785Z,1004.19
2019-05-12T07:51:54.210Z,1004.27
2019-05-12T07:52:51.424Z,1004.33
2019-05-12T07:53:57.163Z,1004.39
2019-05-12T07:54:55.748Z,1004.39
2019-05-12T07:55:53.253Z,1004.41
2019-05-12T07:56:53.824Z,1004.45
2019-05-12T07:57:56.003Z,1004.43
2019-05-12T07:58:56.484Z,1004.48
2019-05-12T07:59:51.355Z,1004.50
2019-05-12T08:00:53.979Z,1004.57
2019-05-12T08:01:54.912Z,1004.63
2019-05-12T08:02:53.539Z,1004.69
2019-05-12T08:03:59.340Z,1004.63
2019-05-12T08:04:54.164Z,1004.76
2019-05-12T08:05:56.393Z,1004.71
2019-05-12T08:06:53.853Z,1004.69
2019-05-12T08:07:53.447Z,1004.75
2019-05-12T08:08:56.583Z,1004.82
2019-05-12T08:09:53.642Z,1004.82
2019-05-12T08:10:53.533Z,1004.88
2019-05-12T08:11:53.897Z,1004.94
2019-05-12T08:12:57.421Z,1004.88
2019-05-12T08:15:09.638Z,1004.92
2019-05-12T08:16:05.949Z,1004.98
2019-05-12T08:17:11.069Z,1005.00
2019-05-12T08:18:08.060Z,1005.10
2019-05-12T08:19:08.369Z,1005.11
2019-05-12T08:20:05.906Z,1005.09
2019-05-12T08:21:05.939Z,1005.14
2019-05-12T08:22:05.887Z,1005.10
2019-05-12T08:23:10.319Z,1005.11
2019-05-12T08:24:05.859Z,1005.31
2019-05-12T08:25:05.851Z,1005.27
2019-05-12T08:26:11.958Z,1005.26
2019-05-12T08:27:06.853Z,1005.44
2019-05-12T08:28:14.844Z,1005.41
2019-05-12T08:29:10.292Z,1005.39
2019-05-12T08:30:06.793Z,1005.42
2019-05-12T08:31:05.776Z,1005.47
2019-05-12T08:32:09.822Z,1005.51
2019-05-12T08:33:09.646Z,1005.54
2019-05-12T08:34:05.748Z,1005.58
2019-05-12T08:35:05.743Z,1005.58
2019-05-12T08:36:11.523Z,1005.67
2019-05-12T08:37:06.711Z,1005.62
2019-05-12T08:38:05.715Z,1005.66
2019-05-12T08:39:11.336Z,1005.66
2019-05-12T08:40:07.682Z,1005.72
2019-05-12T08:41:05.679Z,1005.79
2019-05-12T08:42:05.667Z,1005.81
2019-05-12T08:43:10.326Z,1005.83
2019-05-12T08:44:06.632Z,1005.85
2019-05-12T08:45:25.060Z,1005.87
2019-05-12T08:46:11.922Z,1005.88
2019-05-12T08:47:06.598Z,1005.88
2019-05-12T08:48:10.141Z,1005.97
2019-05-12T08:49:06.583Z,1005.93
2019-05-12T08:50:05.566Z,1005.88
2019-05-12T08:51:13.942Z,1005.96
2019-05-12T08:52:06.546Z,1005.93
2019-05-12T08:53:05.531Z,1005.99
2019-05-12T08:54:08.109Z,1006.04
2019-05-12T08:55:05.588Z,1006.10
2019-05-12T08:56:13.372Z,1006.05
2019-05-12T08:57:06.483Z,1006.10
2019-05-12T08:58:05.477Z,1006.14
2019-05-12T08:59:09.728Z,1006.14
2019-05-12T09:00:08.556Z,1006.13
2019-05-12T09:01:05.444Z,1006.12
2019-05-12T09:02:07.430Z,1006.17
2019-05-12T09:03:06.420Z,1006.25
2019-05-12T09:04:09.231Z,1006.19
2019-05-12T09:05:06.398Z,1006.19
2019-05-12T09:06:09.319Z,1006.12
2019-05-12T09:07:06.385Z,1006.25
2019-05-12T09:08:05.366Z,1006.17
2019-05-12T09:09:05.375Z,1006.10
2019-05-12T09:10:05.341Z,1006.17
2019-05-12T09:11:06.171Z,1006.28
2019-05-12T09:12:05.372Z,1006.34
2019-05-12T09:13:05.308Z,1006.29
2019-05-12T09:14:05.948Z,1006.36
2019-05-12T09:15:08.061Z,1006.34
2019-05-12T09:16:18.450Z,1006.48
2019-05-12T09:17:13.891Z,1006.43
2019-05-12T09:18:05.267Z,1006.48
2019-05-12T09:19:10.149Z,1006.48
2019-05-12T09:20:08.365Z,1006.53
2019-05-12T09:21:05.216Z,1006.54
2019-05-12T09:22:16.285Z,1006.65
2019-05-12T09:23:06.206Z,1006.58
2019-05-12T09:24:15.595Z,1006.63
2019-05-12T09:25:08.353Z,1006.67
2019-05-12T09:26:05.168Z,1006.66
2019-05-12T09:27:08.817Z,1006.66
2019-05-12T09:28:05.140Z,1006.76
2019-05-12T09:29:07.419Z,1006.82
2019-05-12T09:30:09.527Z,1006.72
2019-05-12T09:31:05.115Z,1006.75
2019-05-12T09:32:09.358Z,1006.75
2019-05-12T09:33:05.091Z,1006.83
2019-05-12T09:34:11.475Z,1006.79
2019-05-12T09:35:06.075Z,1006.80
2019-05-12T09:36:05.048Z,1006.94
2019-05-12T09:37:05.040Z,1006.91
2019-05-12T09:38:06.221Z,1006.93
2019-05-12T09:39:05.853Z,1006.98
2019-05-12T09:40:05.045Z,1006.99
2019-05-12T09:41:05.416Z,1006.97
2019-05-12T09:42:04.981Z,1007.02
2019-05-12T09:43:09.239Z,1007.03
2019-05-12T09:44:05.961Z,1007.10
2019-05-12T09:45:08.616Z,1007.04
2019-05-12T09:46:05.950Z,1007.08
2019-05-12T09:47:07.609Z,1007.17
2019-05-12T09:48:09.093Z,1007.18
2019-05-12T09:49:04.906Z,1007.22
2019-05-12T09:50:09.769Z,1007.07
2019-05-12T09:51:08.026Z,1007.18
2019-05-12T09:52:04.868Z,1007.15
2019-05-12T09:53:09.310Z,1007.15
2019-05-12T09:54:05.846Z,1007.23
2019-05-12T09:55:15.301Z,1007.21
2019-05-12T09:56:04.828Z,1007.22
2019-05-12T09:57:04.810Z,1007.33
2019-05-12T09:58:04.808Z,1007.27
2019-05-12T09:59:17.265Z,1007.33
2019-05-12T10:00:05.790Z,1007.24
2019-05-12T10:01:04.770Z,1007.35
2019-05-12T10:02:04.758Z,1007.38
2019-05-12T10:03:08.099Z,1007.33
2019-05-12T10:04:04.736Z,1007.35
2019-05-12T10:05:04.729Z,1007.46
2019-05-12T10:06:04.713Z,1007.35
2019-05-12T10:07:04.711Z,1007.41
2019-05-12T10:08:04.910Z,1007.46
2019-05-12T10:09:08.818Z,1007.44
2019-05-12T10:10:05.690Z,1007.45
2019-05-12T10:11:04.661Z,1007.52
2019-05-12T10:12:05.553Z,1007.60
2019-05-12T10:13:05.050Z,1007.69
2019-05-12T10:14:06.492Z,1007.63
2019-05-12T10:15:05.626Z,1007.65
2019-05-12T10:16:08.681Z,1007.62
2019-05-12T10:17:04.586Z,1007.74
2019-05-12T10:18:10.790Z,1007.78
2019-05-12T10:19:05.602Z,1007.75
2019-05-12T10:20:04.552Z,1007.85
2019-05-12T10:21:04.544Z,1007.85
2019-05-12T10:22:04.535Z,1007.90
2019-05-12T10:23:04.725Z,1007.89
2019-05-12T10:24:05.127Z,1007.95
2019-05-12T10:25:04.517Z,1007.90
2019-05-12T10:26:14.997Z,1007.94
2019-05-12T10:27:04.472Z,1008.01
2019-05-12T10:28:11.350Z,1008.02
2019-05-12T10:29:16.353Z,1008.01
2019-05-12T10:30:11.866Z,1008.04
2019-05-12T10:31:05.427Z,1008.01
2019-05-12T10:32:04.429Z,1007.93
2019-05-12T10:33:04.409Z,1008.03
2019-05-12T10:34:04.400Z,1008.07
2019-05-12T10:35:04.382Z,1008.06
2019-05-12T10:36:08.285Z,1008.20
2019-05-12T10:37:04.367Z,1008.10
2019-05-12T10:38:09.177Z,1008.19
2019-05-12T10:39:05.344Z,1008.12
2019-05-12T10:40:04.331Z,1008.19
2019-05-12T10:41:04.494Z,1008.22
2019-05-12T10:42:04.343Z,1008.21
2019-05-12T10:43:04.839Z,1008.16
2019-05-12T10:44:04.305Z,1008.19
2019-05-12T10:45:04.425Z,1008.22
2019-05-12T10:46:04.382Z,1008.29
2019-05-12T10:47:04.597Z,1008.26
2019-05-12T10:48:04.245Z,1008.35
2019-05-12T10:49:04.235Z,1008.40
2019-05-12T10:50:04.220Z,1008.38
2019-05-12T10:51:04.208Z,1008.44
2019-05-12T10:52:04.216Z,1008.31
2019-05-12T10:53:04.750Z,1008.39
2019-05-12T10:54:11.820Z,1008.30
2019-05-12T10:55:05.164Z,1008.40
2019-05-12T10:56:04.157Z,1008.36
2019-05-12T10:57:15.379Z,1008.38
2019-05-12T10:58:06.885Z,1008.44
2019-05-12T10:59:04.376Z,1008.51
2019-05-12T11:00:04.325Z,1008.41
2019-05-12T11:01:08.311Z,1008.50
2019-05-12T11:02:04.088Z,1008.50
2019-05-12T11:03:10.235Z,1008.49
2019-05-12T11:04:05.069Z,1008.62
2019-05-12T11:05:04.059Z,1008.63
2019-05-12T11:06:07.459Z,1008.62
2019-05-12T11:07:04.654Z,1008.63
2019-05-12T11:08:10.917Z,1008.69
2019-05-12T11:09:05.017Z,1008.65
2019-05-12T11:10:15.356Z,1008.67
2019-05-12T11:11:04.985Z,1008.68
2019-05-12T11:12:03.974Z,1008.68
2019-05-12T11:13:08.445Z,1008.72
2019-05-12T11:14:04.985Z,1008.70
2019-05-12T11:15:06.702Z,1008.82
2019-05-12T11:16:03.978Z,1008.81
2019-05-12T11:17:07.689Z,1008.80
2019-05-12T11:18:04.915Z,1008.87
2019-05-12T11:19:06.459Z,1008.84
2019-05-12T11:20:04.938Z,1008.89
2019-05-12T11:21:03.876Z,1008.89
2019-05-12T11:22:03.909Z,1008.86
2019-05-12T11:23:03.866Z,1008.90
2019-05-12T11:24:03.961Z,1008.90
2019-05-12T11:25:04.412Z,1008.89
2019-05-12T11:26:04.053Z,1008.91
2019-05-12T11:27:04.207Z,1008.93
2019-05-12T11:28:16.577Z,1008.87
2019-05-12T11:29:03.897Z,1008.89
2019-05-12T11:30:04.387Z,1009.00
2019-05-12T11:31:03.786Z,1009.02
2019-05-12T11:32:03.761Z,1009.03
2019-05-12T11:33:04.526Z,1008.97
2019-05-12T11:34:04.818Z,1009.01
2019-05-12T11:35:04.181Z,1009.01
2019-05-12T11:36:04.423Z,1009.02
2019-05-12T11:37:03.776Z,1009.07
2019-05-12T11:38:04.410Z,1009.15
2019-05-12T11:39:03.732Z,1009.12
2019-05-12T11:40:04.335Z,1009.11
2019-05-12T11:41:04.218Z,1009.10
2019-05-12T11:42:04.232Z,1009.13
2019-05-12T11:43:04.472Z,1009.22
2019-05-12T11:44:04.050Z,1009.16
2019-05-12T11:45:03.602Z,1009.15
2019-05-12T11:46:03.595Z,1009.10
2019-05-12T11:47:03.872Z,1009.14
2019-05-12T11:48:08.410Z,1009.21
2019-05-12T11:49:04.566Z,1009.36
2019-05-12T11:50:08.036Z,1009.32
2019-05-12T11:51:04.544Z,1009.23
2019-05-12T11:52:07.643Z,1009.32
2019-05-12T11:53:04.569Z,1009.31
2019-05-12T11:54:09.003Z,1009.32
2019-05-12T11:55:04.498Z,1009.33
2019-05-12T11:56:07.548Z,1009.30
2019-05-12T11:57:04.473Z,1009.38
2019-05-12T11:58:06.857Z,1009.39
2019-05-12T12:00:17.868Z,1009.45
2019-05-12T12:01:17.852Z,1009.48
2019-05-12T12:02:20.246Z,1009.47
2019-05-12T12:03:18.827Z,1009.49
2019-05-12T12:04:17.825Z,1009.50
2019-05-12T12:05:17.821Z,1009.46
2019-05-12T12:06:17.805Z,1009.46
2019-05-12T12:07:17.789Z,1009.52
2019-05-12T12:08:17.781Z,1009.54
2019-05-12T12:09:18.996Z,1009.58
2019-05-12T12:10:17.797Z,1009.61
2019-05-12T12:11:24.232Z,1009.63
2019-05-12T12:12:18.737Z,1009.74
2019-05-12T12:13:19.257Z,1009.73
2019-05-12T12:14:18.709Z,1009.72
2019-05-12T12:15:20.509Z,1009.67
2019-05-12T12:17:31.270Z,1009.78
2019-05-12T12:18:28.446Z,1009.78
2019-05-12T12:19:34.934Z,1009.93
2019-05-12T12:20:28.429Z,1009.93
2019-05-12T12:21:27.422Z,1009.88
2019-05-12T12:22:29.764Z,1009.94
2019-05-12T12:23:27.439Z,1009.91